Terminal Aerodrome Forecast
Issued by NWS

Home | Current Version | Previous Version | Text Only | Print | Product List | Glossary On
Versions: 1 2 3 4 5 6 7 8 9 10 11 12 13 14
000
FTAK31 PAJN 222300
TAFAWG
TAF
PAWG 222337Z 2300/2324 30006KT P6SM SCT045 SCT200
     FM230200 32008KT P6SM SCT100
     FM230400 VRB04KT P6SM BKN100
     FM231800 32006KT P6SM SCT050 BKN100
      AMD LTD TO CLD VIS AND WIND 2306/2315=

USA.gov is the U.S. government's official web portal to all federal, state and local government web resources and services.